TAM3861 SBTE-SBFZ
Flight info
| Callsign | TAM3861 |
|---|---|
| Flight time | 0h 50m |
| Altitude | 33000 |
| Route | MUMAG DCT DOTKU |
| Aircraft | A319/M-SDE3FGHIRWY/LB1 |
Departure
| Time | 2026-04-26 18:06 |
|---|---|
| Airport | Senador Petrônio Portela Airport (SBTE) |
Arrival
| Time | 2026-04-26 18:57 |
|---|---|
| Airport | Pinto Martins International Airport (SBFZ) |
| Time | Latitude | Longitude | Altitude | Speed | Heading |
|---|---|---|---|---|---|
| 2026-04-26 17:50 | -5.06363 | -42.82163 | 211 ft | 0 kts | 83° |
| 2026-04-26 17:59 | -5.06363 | -42.82165 | 211 ft | 2 kts | 83° |
| 2026-04-26 17:59 | -5.06365 | -42.82181 | 210 ft | 2 kts | 83° |
| 2026-04-26 18:00 | -5.06368 | -42.82196 | 216 ft | 2 kts | 58° |
| 2026-04-26 18:00 | -5.06380 | -42.82207 | 212 ft | 2 kts | 359° |
| 2026-04-26 18:00 | -5.06396 | -42.82207 | 211 ft | 2 kts | 356° |
| 2026-04-26 18:01 | -5.06388 | -42.82209 | 217 ft | 2 kts | 339° |
| 2026-04-26 18:02 | -5.06377 | -42.82219 | 213 ft | 2 kts | 311° |
| 2026-04-26 18:02 | -5.06375 | -42.82224 | 212 ft | 2 kts | 301° |
| 2026-04-26 18:02 | -5.06369 | -42.82278 | 212 ft | 8 kts | 265° |
| 2026-04-26 18:02 | -5.06346 | -42.82334 | 212 ft | 11 kts | 327° |
| 2026-04-26 18:03 | -5.06255 | -42.82347 | 219 ft | 16 kts | 354° |
| 2026-04-26 18:03 | -5.06126 | -42.82361 | 208 ft | 21 kts | 353° |
| 2026-04-26 18:03 | -5.05974 | -42.82376 | 206 ft | 22 kts | 354° |
| 2026-04-26 18:03 | -5.05810 | -42.82393 | 209 ft | 23 kts | 354° |
| 2026-04-26 18:04 | -5.05638 | -42.82412 | 206 ft | 25 kts | 354° |
| 2026-04-26 18:04 | -5.05467 | -42.82429 | 198 ft | 24 kts | 354° |
| 2026-04-26 18:04 | -5.05302 | -42.82447 | 207 ft | 25 kts | 354° |
| 2026-04-26 18:05 | -5.05044 | -42.82443 | 193 ft | 15 kts | 354° |
| 2026-04-26 18:05 | -5.05052 | -42.82474 | 196 ft | 6 kts | 172° |
| 2026-04-26 18:05 | -5.05060 | -42.82473 | 197 ft | 2 kts | 172° |
| 2026-04-26 18:05 | -5.05294 | -42.82448 | 197 ft | 72 kts | 175° |
| 2026-04-26 18:06 | -5.06021 | -42.82371 | 209 ft | 136 kts | 174° |
| 2026-04-26 18:06 | -5.07028 | -42.82274 | 641 ft | 148 kts | 173° |
| 2026-04-26 18:06 | -5.08056 | -42.82178 | 1188 ft | 148 kts | 172° |
| 2026-04-26 18:06 | -5.09086 | -42.82079 | 1639 ft | 152 kts | 172° |
| 2026-04-26 18:07 | -5.10212 | -42.81969 | 1831 ft | 174 kts | 171° |
| 2026-04-26 18:07 | -5.11495 | -42.81841 | 2019 ft | 196 kts | 172° |
| 2026-04-26 18:07 | -5.12933 | -42.81698 | 2220 ft | 223 kts | 173° |
| 2026-04-26 18:07 | -5.14007 | -42.81546 | 2462 ft | 239 kts | 164° |
| 2026-04-26 18:08 | -5.15710 | -42.80095 | 3239 ft | 259 kts | 114° |
| 2026-04-26 18:08 | -5.16088 | -42.78312 | 4122 ft | 266 kts | 91° |
| 2026-04-26 18:08 | -5.15809 | -42.76465 | 5048 ft | 270 kts | 78° |
| 2026-04-26 18:08 | -5.15381 | -42.74624 | 6004 ft | 272 kts | 77° |
| 2026-04-26 18:09 | -5.14930 | -42.72768 | 6824 ft | 276 kts | 77° |
| 2026-04-26 18:09 | -5.14464 | -42.70884 | 7636 ft | 280 kts | 77° |
| 2026-04-26 18:09 | -5.13992 | -42.68978 | 8439 ft | 283 kts | 77° |
| 2026-04-26 18:09 | -5.13524 | -42.67073 | 9237 ft | 287 kts | 77° |
| 2026-04-26 18:10 | -5.13041 | -42.65115 | 10003 ft | 290 kts | 77° |
| 2026-04-26 18:10 | -5.12554 | -42.63137 | 10735 ft | 293 kts | 77° |
| 2026-04-26 18:10 | -5.12062 | -42.61137 | 11415 ft | 298 kts | 76° |
| 2026-04-26 18:10 | -5.11556 | -42.59107 | 12102 ft | 301 kts | 74° |
| 2026-04-26 18:11 | -5.10738 | -42.57140 | 12591 ft | 314 kts | 61° |
| 2026-04-26 18:11 | -5.09575 | -42.55196 | 12753 ft | 335 kts | 59° |
| 2026-04-26 18:11 | -5.08340 | -42.53162 | 13212 ft | 345 kts | 59° |
| 2026-04-26 18:11 | -5.07094 | -42.51114 | 13786 ft | 349 kts | 59° |
| 2026-04-26 18:12 | -5.05826 | -42.49020 | 14319 ft | 353 kts | 59° |
| 2026-04-26 18:12 | -5.04549 | -42.46903 | 14844 ft | 357 kts | 59° |
| 2026-04-26 18:12 | -5.03259 | -42.44761 | 15380 ft | 360 kts | 59° |
| 2026-04-26 18:12 | -5.01957 | -42.42600 | 15925 ft | 363 kts | 58° |
| 2026-04-26 18:13 | -5.00644 | -42.40418 | 16476 ft | 366 kts | 59° |
| 2026-04-26 18:13 | -4.99324 | -42.38222 | 17018 ft | 369 kts | 58° |
| 2026-04-26 18:13 | -4.97994 | -42.36009 | 17552 ft | 372 kts | 58° |
| 2026-04-26 18:13 | -4.97559 | -42.35288 | 17746 ft | 373 kts | 58° |
| 2026-04-26 18:14 | -4.95295 | -42.31527 | 18564 ft | 377 kts | 58° |
| 2026-04-26 18:14 | -4.93937 | -42.29270 | 19051 ft | 379 kts | 59° |
| 2026-04-26 18:14 | -4.93033 | -42.27767 | 19373 ft | 380 kts | 59° |
| 2026-04-26 18:14 | -4.91661 | -42.25492 | 19875 ft | 382 kts | 59° |
| 2026-04-26 18:15 | -4.89832 | -42.22456 | 20513 ft | 385 kts | 59° |
| 2026-04-26 18:15 | -4.88471 | -42.20143 | 20981 ft | 387 kts | 63° |
| 2026-04-26 18:15 | -4.87460 | -42.17637 | 21423 ft | 389 kts | 74° |
| 2026-04-26 18:15 | -4.86924 | -42.14968 | 21875 ft | 391 kts | 82° |
| 2026-04-26 18:16 | -4.86662 | -42.13173 | 22167 ft | 393 kts | 82° |
| 2026-04-26 18:16 | -4.85848 | -42.07713 | 23056 ft | 397 kts | 81° |
| 2026-04-26 18:16 | -4.85434 | -42.04965 | 23492 ft | 399 kts | 81° |
| 2026-04-26 18:17 | -4.85017 | -42.02204 | 23855 ft | 401 kts | 81° |
| 2026-04-26 18:17 | -4.84598 | -41.99429 | 24218 ft | 403 kts | 81° |
| 2026-04-26 18:17 | -4.84183 | -41.96676 | 24579 ft | 404 kts | 82° |
| 2026-04-26 18:17 | -4.83756 | -41.93847 | 24946 ft | 406 kts | 82° |
| 2026-04-26 18:18 | -4.83341 | -41.91078 | 25297 ft | 407 kts | 82° |
| 2026-04-26 18:18 | -4.82920 | -41.88261 | 25647 ft | 409 kts | 82° |
| 2026-04-26 18:18 | -4.82493 | -41.85423 | 26006 ft | 411 kts | 82° |
| 2026-04-26 18:18 | -4.82065 | -41.82582 | 26333 ft | 413 kts | 81° |
| 2026-04-26 18:19 | -4.81637 | -41.79732 | 26664 ft | 415 kts | 82° |
| 2026-04-26 18:19 | -4.81212 | -41.76893 | 26998 ft | 416 kts | 82° |
| 2026-04-26 18:19 | -4.80781 | -41.74010 | 27293 ft | 419 kts | 82° |
| 2026-04-26 18:19 | -4.80347 | -41.71106 | 27606 ft | 421 kts | 82° |
| 2026-04-26 18:20 | -4.79911 | -41.68190 | 27927 ft | 423 kts | 82° |
| 2026-04-26 18:20 | -4.79473 | -41.65264 | 28251 ft | 425 kts | 82° |
| 2026-04-26 18:20 | -4.79033 | -41.62331 | 28575 ft | 426 kts | 82° |
| 2026-04-26 18:20 | -4.78739 | -41.60381 | 28798 ft | 427 kts | 82° |
| 2026-04-26 18:21 | -4.78137 | -41.56423 | 29227 ft | 430 kts | 82° |
| 2026-04-26 18:21 | -4.77691 | -41.53494 | 29595 ft | 430 kts | 82° |
| 2026-04-26 18:21 | -4.77242 | -41.50525 | 29957 ft | 431 kts | 82° |
| 2026-04-26 18:21 | -4.76797 | -41.47547 | 30235 ft | 432 kts | 82° |
| 2026-04-26 18:22 | -4.76352 | -41.44553 | 30503 ft | 433 kts | 82° |
| 2026-04-26 18:22 | -4.75904 | -41.41557 | 30767 ft | 435 kts | 82° |
| 2026-04-26 18:22 | -4.75451 | -41.38555 | 31025 ft | 436 kts | 82° |
| 2026-04-26 18:22 | -4.75003 | -41.35575 | 31277 ft | 438 kts | 82° |
| 2026-04-26 18:23 | -4.74549 | -41.32549 | 31490 ft | 441 kts | 82° |
| 2026-04-26 18:23 | -4.74090 | -41.29501 | 31766 ft | 441 kts | 82° |
| 2026-04-26 18:23 | -4.73630 | -41.26455 | 32124 ft | 441 kts | 82° |
| 2026-04-26 18:23 | -4.73170 | -41.23417 | 32512 ft | 439 kts | 82° |
| 2026-04-26 18:24 | -4.72717 | -41.20423 | 32833 ft | 439 kts | 82° |
| 2026-04-26 18:24 | -4.72259 | -41.17404 | 32917 ft | 432 kts | 82° |
| 2026-04-26 18:24 | -4.71812 | -41.14459 | 32926 ft | 420 kts | 82° |
| 2026-04-26 18:24 | -4.71375 | -41.11585 | 32922 ft | 414 kts | 82° |
| 2026-04-26 18:25 | -4.70518 | -41.05933 | 32928 ft | 411 kts | 82° |
| 2026-04-26 18:25 | -4.69661 | -41.00260 | 32928 ft | 411 kts | 82° |
| 2026-04-26 18:26 | -4.68807 | -40.94585 | 32928 ft | 411 kts | 82° |
| 2026-04-26 18:26 | -4.67955 | -40.88952 | 32924 ft | 411 kts | 82° |
| 2026-04-26 18:27 | -4.67096 | -40.83277 | 32919 ft | 411 kts | 82° |
| 2026-04-26 18:27 | -4.66240 | -40.77630 | 32921 ft | 411 kts | 82° |
| 2026-04-26 18:28 | -4.65382 | -40.71962 | 32915 ft | 411 kts | 82° |
| 2026-04-26 18:28 | -4.64519 | -40.66292 | 32924 ft | 411 kts | 82° |
| 2026-04-26 18:29 | -4.63659 | -40.60618 | 32922 ft | 410 kts | 82° |
| 2026-04-26 18:29 | -4.62796 | -40.54995 | 32924 ft | 410 kts | 82° |
| 2026-04-26 18:30 | -4.61936 | -40.49349 | 32918 ft | 410 kts | 82° |
| 2026-04-26 18:30 | -4.61080 | -40.43695 | 32920 ft | 409 kts | 82° |
| 2026-04-26 18:31 | -4.60225 | -40.38054 | 32921 ft | 408 kts | 82° |
| 2026-04-26 18:31 | -4.59374 | -40.32449 | 32920 ft | 408 kts | 82° |
| 2026-04-26 18:32 | -4.58509 | -40.26819 | 32923 ft | 408 kts | 82° |
| 2026-04-26 18:32 | -4.57654 | -40.21230 | 32918 ft | 407 kts | 82° |
| 2026-04-26 18:33 | -4.56798 | -40.15548 | 32930 ft | 418 kts | 82° |
| 2026-04-26 18:33 | -4.55903 | -40.09673 | 32928 ft | 431 kts | 82° |
| 2026-04-26 18:34 | -4.54989 | -40.03746 | 32926 ft | 433 kts | 82° |
| 2026-04-26 18:34 | -4.54078 | -39.97767 | 32929 ft | 433 kts | 82° |
| 2026-04-26 18:35 | -4.53166 | -39.91795 | 32931 ft | 433 kts | 82° |
| 2026-04-26 18:35 | -4.52252 | -39.85821 | 32921 ft | 432 kts | 82° |
| 2026-04-26 18:36 | -4.51348 | -39.79882 | 32919 ft | 432 kts | 81° |
| 2026-04-26 18:36 | -4.50431 | -39.73921 | 32921 ft | 433 kts | 81° |
| 2026-04-26 18:37 | -4.49515 | -39.67946 | 32923 ft | 433 kts | 82° |
| 2026-04-26 18:37 | -4.48605 | -39.61998 | 32925 ft | 434 kts | 81° |
| 2026-04-26 18:38 | -4.48147 | -39.59025 | 32782 ft | 426 kts | 81° |
| 2026-04-26 18:38 | -4.47702 | -39.56142 | 32581 ft | 409 kts | 81° |
| 2026-04-26 18:38 | -4.47274 | -39.53365 | 32080 ft | 399 kts | 81° |
| 2026-04-26 18:38 | -4.46853 | -39.50630 | 31451 ft | 394 kts | 81° |
| 2026-04-26 18:39 | -4.46438 | -39.47930 | 30804 ft | 390 kts | 81° |
| 2026-04-26 18:39 | -4.46027 | -39.45254 | 30149 ft | 387 kts | 81° |
| 2026-04-26 18:39 | -4.45620 | -39.42600 | 29433 ft | 384 kts | 81° |
| 2026-04-26 18:39 | -4.45224 | -39.40003 | 28728 ft | 381 kts | 81° |
| 2026-04-26 18:40 | -4.44823 | -39.37379 | 28041 ft | 378 kts | 81° |
| 2026-04-26 18:40 | -4.44424 | -39.34779 | 27301 ft | 378 kts | 81° |
| 2026-04-26 18:40 | -4.44024 | -39.32173 | 26529 ft | 378 kts | 81° |
| 2026-04-26 18:40 | -4.43621 | -39.29565 | 25776 ft | 378 kts | 81° |
| 2026-04-26 18:41 | -4.43215 | -39.26950 | 24955 ft | 380 kts | 81° |
| 2026-04-26 18:41 | -4.42811 | -39.24322 | 24132 ft | 382 kts | 80° |
| 2026-04-26 18:41 | -4.42408 | -39.21682 | 23299 ft | 384 kts | 80° |
| 2026-04-26 18:41 | -4.42003 | -39.19032 | 22348 ft | 385 kts | 80° |
| 2026-04-26 18:42 | -4.41598 | -39.16406 | 21435 ft | 385 kts | 81° |
| 2026-04-26 18:42 | -4.41186 | -39.13758 | 20544 ft | 384 kts | 81° |
| 2026-04-26 18:42 | -4.40775 | -39.11119 | 19677 ft | 383 kts | 81° |
| 2026-04-26 18:42 | -4.40343 | -39.08496 | 18833 ft | 380 kts | 77° |
| 2026-04-26 18:43 | -4.39346 | -39.06054 | 17977 ft | 379 kts | 58° |
| 2026-04-26 18:43 | -4.37587 | -39.04098 | 17034 ft | 378 kts | 38° |
| 2026-04-26 18:43 | -4.35472 | -39.02794 | 16173 ft | 375 kts | 30° |
| 2026-04-26 18:43 | -4.33198 | -39.01523 | 15286 ft | 372 kts | 29° |
| 2026-04-26 18:44 | -4.30946 | -39.00269 | 14433 ft | 369 kts | 29° |
| 2026-04-26 18:44 | -4.28739 | -38.99037 | 13583 ft | 365 kts | 29° |
| 2026-04-26 18:44 | -4.26535 | -38.97806 | 12827 ft | 356 kts | 29° |
| 2026-04-26 18:44 | -4.24422 | -38.96630 | 12406 ft | 340 kts | 30° |
| 2026-04-26 18:45 | -4.22395 | -38.95506 | 11987 ft | 326 kts | 29° |
| 2026-04-26 18:45 | -4.20443 | -38.94425 | 11577 ft | 314 kts | 29° |
| 2026-04-26 18:45 | -4.18551 | -38.93376 | 11172 ft | 306 kts | 29° |
| 2026-04-26 18:45 | -4.16702 | -38.92354 | 10942 ft | 302 kts | 29° |
| 2026-04-26 18:46 | -4.14887 | -38.91352 | 10896 ft | 302 kts | 30° |
| 2026-04-26 18:46 | -4.13022 | -38.90322 | 10154 ft | 310 kts | 30° |
| 2026-04-26 18:46 | -4.11110 | -38.89275 | 9347 ft | 314 kts | 27° |
| 2026-04-26 18:46 | -4.09066 | -38.88510 | 8670 ft | 312 kts | 19° |
| 2026-04-26 18:47 | -4.07050 | -38.87836 | 8329 ft | 299 kts | 20° |
| 2026-04-26 18:47 | -4.05118 | -38.87183 | 7991 ft | 295 kts | 20° |
| 2026-04-26 18:47 | -4.03175 | -38.86521 | 7643 ft | 294 kts | 20° |
| 2026-04-26 18:47 | -4.01239 | -38.85858 | 7299 ft | 293 kts | 20° |
| 2026-04-26 18:48 | -3.99375 | -38.85070 | 6951 ft | 289 kts | 32° |
| 2026-04-26 18:48 | -3.97766 | -38.83950 | 6707 ft | 275 kts | 38° |
| 2026-04-26 18:48 | -3.96240 | -38.82859 | 6472 ft | 263 kts | 37° |
| 2026-04-26 18:48 | -3.94788 | -38.81833 | 6242 ft | 252 kts | 37° |
| 2026-04-26 18:49 | -3.93385 | -38.80845 | 6012 ft | 240 kts | 37° |
| 2026-04-26 18:49 | -3.92038 | -38.79896 | 5800 ft | 234 kts | 37° |
| 2026-04-26 18:49 | -3.90713 | -38.78961 | 5592 ft | 232 kts | 37° |
| 2026-04-26 18:49 | -3.89395 | -38.78029 | 5391 ft | 233 kts | 37° |
| 2026-04-26 18:50 | -3.88520 | -38.77409 | 5248 ft | 232 kts | 37° |
| 2026-04-26 18:50 | -3.86765 | -38.76163 | 4973 ft | 230 kts | 37° |
| 2026-04-26 18:50 | -3.85461 | -38.75236 | 4766 ft | 230 kts | 37° |
| 2026-04-26 18:50 | -3.84175 | -38.74321 | 4558 ft | 229 kts | 37° |
| 2026-04-26 18:51 | -3.82875 | -38.73408 | 4349 ft | 228 kts | 34° |
| 2026-04-26 18:51 | -3.81421 | -38.72767 | 4141 ft | 229 kts | 17° |
| 2026-04-26 18:51 | -3.79878 | -38.72355 | 3923 ft | 229 kts | 17° |
| 2026-04-26 18:51 | -3.78337 | -38.71936 | 3708 ft | 229 kts | 17° |
| 2026-04-26 18:52 | -3.76813 | -38.71484 | 3382 ft | 231 kts | 25° |
| 2026-04-26 18:52 | -3.75473 | -38.70615 | 3020 ft | 231 kts | 47° |
| 2026-04-26 18:52 | -3.74542 | -38.69364 | 2832 ft | 217 kts | 66° |
| 2026-04-26 18:52 | -3.74097 | -38.67987 | 2649 ft | 201 kts | 84° |
| 2026-04-26 18:53 | -3.74084 | -38.66641 | 2472 ft | 187 kts | 99° |
| 2026-04-26 18:53 | -3.74381 | -38.65427 | 2222 ft | 172 kts | 107° |
| 2026-04-26 18:53 | -3.74670 | -38.64330 | 2021 ft | 152 kts | 106° |
| 2026-04-26 18:53 | -3.74929 | -38.63353 | 1821 ft | 141 kts | 107° |
| 2026-04-26 18:54 | -3.75176 | -38.62429 | 1661 ft | 135 kts | 107° |
| 2026-04-26 18:54 | -3.75418 | -38.61525 | 1475 ft | 133 kts | 105° |
| 2026-04-26 18:54 | -3.75657 | -38.60633 | 1314 ft | 133 kts | 106° |
| 2026-04-26 18:54 | -3.75896 | -38.59739 | 1134 ft | 132 kts | 105° |
| 2026-04-26 18:55 | -3.76137 | -38.58843 | 981 ft | 132 kts | 105° |
| 2026-04-26 18:55 | -3.76372 | -38.57964 | 820 ft | 130 kts | 104° |
| 2026-04-26 18:55 | -3.76605 | -38.57080 | 636 ft | 130 kts | 103° |
| 2026-04-26 18:55 | -3.76833 | -38.56211 | 431 ft | 129 kts | 103° |
| 2026-04-26 18:56 | -3.77069 | -38.55329 | 292 ft | 131 kts | 105° |
| 2026-04-26 18:56 | -3.77309 | -38.54454 | 131 ft | 129 kts | 103° |
| 2026-04-26 18:56 | -3.77525 | -38.53654 | 85 ft | 101 kts | 105° |
| 2026-04-26 18:56 | -3.77663 | -38.53140 | 77 ft | 52 kts | 105° |
| 2026-04-26 18:57 | -3.77734 | -38.52876 | 75 ft | 35 kts | 105° |
| 2026-04-26 18:57 | -3.77753 | -38.52805 | 75 ft | 33 kts | 105° |
| 2026-04-26 18:57 | -3.77849 | -38.52624 | 74 ft | 7 kts | 208° |
| 2026-04-26 18:57 | -3.77877 | -38.52670 | 73 ft | 8 kts | 244° |
| 2026-04-26 18:58 | -3.77904 | -38.52725 | 73 ft | 9 kts | 244° |
| 2026-04-26 18:58 | -3.77909 | -38.52789 | 71 ft | 10 kts | 283° |
| 2026-04-26 18:58 | -3.77890 | -38.52858 | 73 ft | 11 kts | 287° |
| 2026-04-26 18:58 | -3.77870 | -38.52933 | 77 ft | 12 kts | 284° |
| 2026-04-26 18:59 | -3.77849 | -38.53014 | 74 ft | 12 kts | 284° |
| 2026-04-26 18:59 | -3.77825 | -38.53101 | 70 ft | 13 kts | 285° |
| 2026-04-26 18:59 | -3.77799 | -38.53195 | 81 ft | 15 kts | 284° |
| 2026-04-26 18:59 | -3.77773 | -38.53297 | 80 ft | 15 kts | 285° |
| 2026-04-26 19:00 | -3.77746 | -38.53397 | 82 ft | 9 kts | 284° |
| 2026-04-26 19:00 | -3.77734 | -38.53459 | 81 ft | 9 kts | 271° |
| 2026-04-26 19:00 | -3.77764 | -38.53473 | 84 ft | 5 kts | 190° |
| 2026-04-26 19:00 | -3.77805 | -38.53485 | 81 ft | 7 kts | 196° |
| 2026-04-26 19:01 | -3.77815 | -38.53488 | 81 ft | 0 kts | 195° |